Terminal Aerodrome Forecast
Issued by NWS

Home | Current Version | Previous Version | Text Only | Print | Product List | Glossary Off
Versions: 1 2 3 4 5 6 7 8 9 10 11 12 13 14

000
FTUS43 KMPX 250522
TAFRWF
TAF
KRWF 250522Z 2506/2606 10011KT P6SM OVC015
      TEMPO 2509/2512 OVC009
     FM251600 09012G19KT P6SM SCT015 OVC030
     FM252000 09010G16KT P6SM SCT030 OVC050
     FM260400 09005KT P6SM SKC=

USA.gov is the U.S. government's official web portal to all federal, state and local government web resources and services.